sensor_id;sensor_type;location;lat;lon;timestamp;P1;durP1;ratioP1;P2;durP2;ratioP2
22634;SDS011;11484;50.858;4.384;2023-01-24T00:01:16;43.97;;;26.48;;
22634;SDS011;11484;50.858;4.384;2023-01-24T00:03:42;45.38;;;26.70;;
22634;SDS011;11484;50.858;4.384;2023-01-24T00:06:08;42.53;;;25.42;;
22634;SDS011;11484;50.858;4.384;2023-01-24T00:08:33;42.90;;;25.33;;
22634;SDS011;11484;50.858;4.384;2023-01-24T00:11:00;46.50;;;25.75;;
22634;SDS011;11484;50.858;4.384;2023-01-24T00:13:27;42.80;;;25.75;;
22634;SDS011;11484;50.858;4.384;2023-01-24T00:16:07;43.92;;;24.70;;
22634;SDS011;11484;50.858;4.384;2023-01-24T00:18:33;41.40;;;24.57;;
22634;SDS011;11484;50.858;4.384;2023-01-24T00:20:59;41.60;;;24.23;;
22634;SDS011;11484;50.858;4.384;2023-01-24T00:23:40;33.17;;;19.58;;
22634;SDS011;11484;50.858;4.384;2023-01-24T00:26:11;45.92;;;25.70;;
22634;SDS011;11484;50.858;4.384;2023-01-24T00:28:37;43.85;;;25.25;;
22634;SDS011;11484;50.858;4.384;2023-01-24T00:31:03;44.88;;;25.50;;
22634;SDS011;11484;50.858;4.384;2023-01-24T00:33:30;44.15;;;26.13;;
22634;SDS011;11484;50.858;4.384;2023-01-24T00:35:56;43.33;;;24.77;;
22634;SDS011;11484;50.858;4.384;2023-01-24T00:38:22;45.13;;;26.70;;
22634;SDS011;11484;50.858;4.384;2023-01-24T00:40:48;42.90;;;25.23;;
22634;SDS011;11484;50.858;4.384;2023-01-24T00:43:14;44.50;;;24.70;;
22634;SDS011;11484;50.858;4.384;2023-01-24T00:45:40;43.72;;;25.42;;
22634;SDS011;11484;50.858;4.384;2023-01-24T00:48:06;42.63;;;24.55;;
22634;SDS011;11484;50.858;4.384;2023-01-24T00:50:34;44.45;;;24.48;;
22634;SDS011;11484;50.858;4.384;2023-01-24T00:53:00;43.15;;;24.48;;
22634;SDS011;11484;50.858;4.384;2023-01-24T00:55:26;39.50;;;23.38;;
22634;SDS011;11484;50.858;4.384;2023-01-24T00:57:52;43.53;;;24.25;;
22634;SDS011;11484;50.858;4.384;2023-01-24T01:00:18;40.97;;;23.60;;
22634;SDS011;11484;50.858;4.384;2023-01-24T01:02:44;44.65;;;24.58;;
22634;SDS011;11484;50.858;4.384;2023-01-24T01:05:10;45.63;;;26.13;;
22634;SDS011;11484;50.858;4.384;2023-01-24T01:07:35;44.00;;;25.17;;
22634;SDS011;11484;50.858;4.384;2023-01-24T01:10:04;43.17;;;24.77;;
22634;SDS011;11484;50.858;4.384;2023-01-24T01:12:30;41.55;;;24.75;;
22634;SDS011;11484;50.858;4.384;2023-01-24T01:14:56;40.70;;;24.95;;
22634;SDS011;11484;50.858;4.384;2023-01-24T01:17:21;46.28;;;25.35;;
22634;SDS011;11484;50.858;4.384;2023-01-24T01:19:51;43.25;;;25.10;;
22634;SDS011;11484;50.858;4.384;2023-01-24T01:22:17;41.13;;;24.05;;
22634;SDS011;11484;50.858;4.384;2023-01-24T01:24:42;44.15;;;25.00;;
22634;SDS011;11484;50.858;4.384;2023-01-24T01:27:08;42.20;;;24.35;;
22634;SDS011;11484;50.858;4.384;2023-01-24T01:29:34;41.55;;;24.30;;
22634;SDS011;11484;50.858;4.384;2023-01-24T01:31:59;44.85;;;25.60;;
22634;SDS011;11484;50.858;4.384;2023-01-24T01:34:25;42.50;;;24.63;;
22634;SDS011;11484;50.858;4.384;2023-01-24T01:36:51;46.13;;;25.02;;
22634;SDS011;11484;50.858;4.384;2023-01-24T01:39:16;40.58;;;24.23;;
22634;SDS011;11484;50.858;4.384;2023-01-24T01:41:42;40.33;;;23.70;;
22634;SDS011;11484;50.858;4.384;2023-01-24T01:47:30;37.72;;;22.45;;
22634;SDS011;11484;50.858;4.384;2023-01-24T01:52:39;39.37;;;23.43;;
22634;SDS011;11484;50.858;4.384;2023-01-24T01:55:13;34.75;;;21.30;;
22634;SDS011;11484;50.858;4.384;2023-01-24T01:57:40;35.05;;;21.20;;
22634;SDS011;11484;50.858;4.384;2023-01-24T02:00:17;38.95;;;21.88;;
22634;SDS011;11484;50.858;4.384;2023-01-24T02:02:48;34.28;;;20.58;;
22634;SDS011;11484;50.858;4.384;2023-01-24T02:05:19;34.22;;;20.45;;
22634;SDS011;11484;50.858;4.384;2023-01-24T02:07:56;34.20;;;20.35;;
22634;SDS011;11484;50.858;4.384;2023-01-24T02:10:25;35.05;;;20.13;;
22634;SDS011;11484;50.858;4.384;2023-01-24T02:13:12;36.90;;;21.73;;
22634;SDS011;11484;50.858;4.384;2023-01-24T02:15:38;36.90;;;21.13;;
22634;SDS011;11484;50.858;4.384;2023-01-24T02:18:22;33.20;;;19.88;;
22634;SDS011;11484;50.858;4.384;2023-01-24T02:20:48;34.58;;;20.58;;
22634;SDS011;11484;50.858;4.384;2023-01-24T02:23:33;34.63;;;20.20;;
22634;SDS011;11484;50.858;4.384;2023-01-24T02:26:25;35.67;;;21.85;;
22634;SDS011;11484;50.858;4.384;2023-01-24T02:28:57;34.90;;;21.52;;
22634;SDS011;11484;50.858;4.384;2023-01-24T02:31:26;36.20;;;21.25;;
22634;SDS011;11484;50.858;4.384;2023-01-24T02:33:52;33.88;;;21.42;;
22634;SDS011;11484;50.858;4.384;2023-01-24T02:36:24;35.25;;;20.70;;
22634;SDS011;11484;50.858;4.384;2023-01-24T02:41:33;34.35;;;21.45;;
22634;SDS011;11484;50.858;4.384;2023-01-24T02:44:21;32.42;;;20.13;;
22634;SDS011;11484;50.858;4.384;2023-01-24T02:46:53;33.95;;;19.85;;
22634;SDS011;11484;50.858;4.384;2023-01-24T02:49:19;34.55;;;20.13;;
22634;SDS011;11484;50.858;4.384;2023-01-24T02:51:45;36.30;;;20.42;;
22634;SDS011;11484;50.858;4.384;2023-01-24T02:54:29;32.88;;;20.88;;
22634;SDS011;11484;50.858;4.384;2023-01-24T02:56:54;33.35;;;19.75;;
22634;SDS011;11484;50.858;4.384;2023-01-24T02:59:38;34.03;;;20.17;;
22634;SDS011;11484;50.858;4.384;2023-01-24T03:02:04;34.95;;;20.77;;
22634;SDS011;11484;50.858;4.384;2023-01-24T03:04:30;32.70;;;20.23;;
22634;SDS011;11484;50.858;4.384;2023-01-24T03:06:55;34.53;;;20.50;;
22634;SDS011;11484;50.858;4.384;2023-01-24T03:09:21;32.70;;;19.90;;
22634;SDS011;11484;50.858;4.384;2023-01-24T03:11:58;33.78;;;19.77;;
22634;SDS011;11484;50.858;4.384;2023-01-24T03:14:44;33.00;;;19.80;;
22634;SDS011;11484;50.858;4.384;2023-01-24T03:17:29;34.53;;;20.42;;
22634;SDS011;11484;50.858;4.384;2023-01-24T03:20:13;33.78;;;19.45;;
22634;SDS011;11484;50.858;4.384;2023-01-24T03:22:58;32.03;;;18.88;;
22634;SDS011;11484;50.858;4.384;2023-01-24T03:25:42;32.40;;;19.63;;
22634;SDS011;11484;50.858;4.384;2023-01-24T03:28:26;31.65;;;19.58;;
22634;SDS011;11484;50.858;4.384;2023-01-24T03:31:10;34.22;;;20.60;;
22634;SDS011;11484;50.858;4.384;2023-01-24T03:33:54;35.30;;;20.65;;
22634;SDS011;11484;50.858;4.384;2023-01-24T03:36:38;33.63;;;20.15;;
22634;SDS011;11484;50.858;4.384;2023-01-24T03:39:04;34.55;;;20.73;;
22634;SDS011;11484;50.858;4.384;2023-01-24T03:41:48;33.83;;;20.17;;
22634;SDS011;11484;50.858;4.384;2023-01-24T03:44:13;31.92;;;19.33;;
22634;SDS011;11484;50.858;4.384;2023-01-24T03:46:39;35.78;;;21.15;;
22634;SDS011;11484;50.858;4.384;2023-01-24T03:49:08;35.35;;;20.02;;
22634;SDS011;11484;50.858;4.384;2023-01-24T03:51:34;33.60;;;20.13;;
22634;SDS011;11484;50.858;4.384;2023-01-24T03:54:19;35.42;;;20.88;;
22634;SDS011;11484;50.858;4.384;2023-01-24T03:56:44;34.60;;;20.10;;
22634;SDS011;11484;50.858;4.384;2023-01-24T03:59:10;29.90;;;18.65;;
22634;SDS011;11484;50.858;4.384;2023-01-24T04:01:36;30.73;;;19.08;;
22634;SDS011;11484;50.858;4.384;2023-01-24T04:04:01;34.80;;;20.20;;
22634;SDS011;11484;50.858;4.384;2023-01-24T04:06:27;29.42;;;19.23;;
22634;SDS011;11484;50.858;4.384;2023-01-24T04:08:53;31.42;;;19.10;;
22634;SDS011;11484;50.858;4.384;2023-01-24T04:11:18;31.05;;;19.33;;
22634;SDS011;11484;50.858;4.384;2023-01-24T04:13:44;33.85;;;20.27;;
22634;SDS011;11484;50.858;4.384;2023-01-24T04:16:10;32.50;;;19.30;;
22634;SDS011;11484;50.858;4.384;2023-01-24T04:18:35;30.60;;;18.23;;
22634;SDS011;11484;50.858;4.384;2023-01-24T04:21:02;32.50;;;19.17;;
22634;SDS011;11484;50.858;4.384;2023-01-24T04:23:29;31.65;;;19.17;;
22634;SDS011;11484;50.858;4.384;2023-01-24T04:25:54;30.35;;;18.75;;
22634;SDS011;11484;50.858;4.384;2023-01-24T04:28:22;32.25;;;20.40;;
22634;SDS011;11484;50.858;4.384;2023-01-24T04:30:48;30.75;;;19.17;;
22634;SDS011;11484;50.858;4.384;2023-01-24T04:33:20;33.15;;;19.17;;
22634;SDS011;11484;50.858;4.384;2023-01-24T04:35:46;34.28;;;19.73;;
22634;SDS011;11484;50.858;4.384;2023-01-24T04:38:11;32.55;;;19.60;;
22634;SDS011;11484;50.858;4.384;2023-01-24T04:40:37;29.83;;;19.13;;
22634;SDS011;11484;50.858;4.384;2023-01-24T04:43:05;31.42;;;19.65;;
22634;SDS011;11484;50.858;4.384;2023-01-24T04:45:31;31.75;;;19.10;;
22634;SDS011;11484;50.858;4.384;2023-01-24T04:47:57;31.40;;;19.02;;
22634;SDS011;11484;50.858;4.384;2023-01-24T04:50:22;32.45;;;19.08;;
22634;SDS011;11484;50.858;4.384;2023-01-24T04:52:48;33.53;;;20.10;;
22634;SDS011;11484;50.858;4.384;2023-01-24T04:55:14;32.17;;;19.33;;
22634;SDS011;11484;50.858;4.384;2023-01-24T04:57:40;32.90;;;19.55;;
22634;SDS011;11484;50.858;4.384;2023-01-24T05:00:06;29.75;;;18.58;;
22634;SDS011;11484;50.858;4.384;2023-01-24T05:02:35;29.48;;;17.70;;
22634;SDS011;11484;50.858;4.384;2023-01-24T05:05:02;31.48;;;19.38;;
22634;SDS011;11484;50.858;4.384;2023-01-24T05:07:29;30.85;;;18.83;;
22634;SDS011;11484;50.858;4.384;2023-01-24T05:09:55;29.80;;;18.13;;
22634;SDS011;11484;50.858;4.384;2023-01-24T05:12:20;31.73;;;19.20;;
22634;SDS011;11484;50.858;4.384;2023-01-24T05:14:46;32.88;;;19.92;;
22634;SDS011;11484;50.858;4.384;2023-01-24T05:17:12;34.03;;;19.90;;
22634;SDS011;11484;50.858;4.384;2023-01-24T05:19:37;30.80;;;18.58;;
22634;SDS011;11484;50.858;4.384;2023-01-24T05:22:03;31.05;;;18.73;;
22634;SDS011;11484;50.858;4.384;2023-01-24T05:24:29;34.78;;;20.60;;
22634;SDS011;11484;50.858;4.384;2023-01-24T05:26:54;33.60;;;20.00;;
22634;SDS011;11484;50.858;4.384;2023-01-24T05:29:20;32.03;;;19.30;;
22634;SDS011;11484;50.858;4.384;2023-01-24T05:31:46;38.08;;;21.65;;
22634;SDS011;11484;50.858;4.384;2023-01-24T05:34:11;32.92;;;19.67;;
22634;SDS011;11484;50.858;4.384;2023-01-24T05:36:37;36.08;;;20.45;;
22634;SDS011;11484;50.858;4.384;2023-01-24T05:39:03;33.00;;;20.27;;
22634;SDS011;11484;50.858;4.384;2023-01-24T05:41:28;33.17;;;20.48;;
22634;SDS011;11484;50.858;4.384;2023-01-24T05:43:54;34.88;;;20.95;;
22634;SDS011;11484;50.858;4.384;2023-01-24T05:46:20;36.00;;;21.25;;
22634;SDS011;11484;50.858;4.384;2023-01-24T05:48:47;35.60;;;20.45;;
22634;SDS011;11484;50.858;4.384;2023-01-24T05:51:14;34.72;;;21.00;;
22634;SDS011;11484;50.858;4.384;2023-01-24T05:53:42;36.30;;;21.00;;
22634;SDS011;11484;50.858;4.384;2023-01-24T05:56:12;34.25;;;22.15;;
22634;SDS011;11484;50.858;4.384;2023-01-24T05:58:40;39.00;;;22.13;;
22634;SDS011;11484;50.858;4.384;2023-01-24T06:01:11;37.08;;;21.90;;
22634;SDS011;11484;50.858;4.384;2023-01-24T06:03:38;33.00;;;20.73;;
22634;SDS011;11484;50.858;4.384;2023-01-24T06:06:08;34.88;;;21.73;;
22634;SDS011;11484;50.858;4.384;2023-01-24T06:08:35;34.42;;;21.10;;
22634;SDS011;11484;50.858;4.384;2023-01-24T06:11:02;36.63;;;21.58;;
22634;SDS011;11484;50.858;4.384;2023-01-24T06:13:33;39.45;;;22.40;;
22634;SDS011;11484;50.858;4.384;2023-01-24T06:16:06;34.28;;;21.08;;
22634;SDS011;11484;50.858;4.384;2023-01-24T06:18:34;37.03;;;21.98;;
22634;SDS011;11484;50.858;4.384;2023-01-24T06:23:53;38.03;;;22.23;;
22634;SDS011;11484;50.858;4.384;2023-01-24T06:26:19;39.70;;;22.98;;
22634;SDS011;11484;50.858;4.384;2023-01-24T06:28:45;43.80;;;24.20;;
22634;SDS011;11484;50.858;4.384;2023-01-24T06:34:09;39.65;;;23.55;;
22634;SDS011;11484;50.858;4.384;2023-01-24T06:39:24;39.72;;;23.02;;
22634;SDS011;11484;50.858;4.384;2023-01-24T06:41:50;40.83;;;23.13;;
22634;SDS011;11484;50.858;4.384;2023-01-24T06:44:16;39.67;;;22.83;;
22634;SDS011;11484;50.858;4.384;2023-01-24T06:46:42;43.40;;;23.67;;
22634;SDS011;11484;50.858;4.384;2023-01-24T06:49:09;39.95;;;24.02;;
22634;SDS011;11484;50.858;4.384;2023-01-24T06:51:36;41.97;;;24.02;;
22634;SDS011;11484;50.858;4.384;2023-01-24T06:54:02;40.83;;;23.73;;
22634;SDS011;11484;50.858;4.384;2023-01-24T06:56:31;44.90;;;23.50;;
22634;SDS011;11484;50.858;4.384;2023-01-24T06:58:57;41.17;;;23.50;;
22634;SDS011;11484;50.858;4.384;2023-01-24T07:01:23;42.42;;;23.65;;
22634;SDS011;11484;50.858;4.384;2023-01-24T07:03:49;38.75;;;22.88;;
22634;SDS011;11484;50.858;4.384;2023-01-24T07:06:14;43.53;;;24.67;;
22634;SDS011;11484;50.858;4.384;2023-01-24T07:08:40;48.10;;;26.77;;
22634;SDS011;11484;50.858;4.384;2023-01-24T07:11:06;48.70;;;26.02;;
22634;SDS011;11484;50.858;4.384;2023-01-24T07:13:32;46.85;;;25.35;;
22634;SDS011;11484;50.858;4.384;2023-01-24T07:16:01;48.13;;;25.88;;
22634;SDS011;11484;50.858;4.384;2023-01-24T07:18:27;47.97;;;26.23;;
22634;SDS011;11484;50.858;4.384;2023-01-24T07:20:53;46.35;;;25.85;;
22634;SDS011;11484;50.858;4.384;2023-01-24T07:23:20;50.75;;;26.52;;
22634;SDS011;11484;50.858;4.384;2023-01-24T07:25:50;45.25;;;25.55;;
22634;SDS011;11484;50.858;4.384;2023-01-24T07:28:17;47.70;;;26.77;;
22634;SDS011;11484;50.858;4.384;2023-01-24T07:30:43;48.05;;;27.30;;
22634;SDS011;11484;50.858;4.384;2023-01-24T07:33:10;46.17;;;26.27;;
22634;SDS011;11484;50.858;4.384;2023-01-24T07:35:37;46.53;;;25.70;;
22634;SDS011;11484;50.858;4.384;2023-01-24T07:38:04;46.53;;;27.50;;
22634;SDS011;11484;50.858;4.384;2023-01-24T07:40:30;47.67;;;26.02;;
22634;SDS011;11484;50.858;4.384;2023-01-24T07:42:58;52.65;;;27.63;;
22634;SDS011;11484;50.858;4.384;2023-01-24T07:45:25;49.58;;;27.58;;
22634;SDS011;11484;50.858;4.384;2023-01-24T07:47:57;49.05;;;26.23;;
22634;SDS011;11484;50.858;4.384;2023-01-24T07:50:24;55.75;;;30.00;;
22634;SDS011;11484;50.858;4.384;2023-01-24T07:52:54;49.85;;;26.73;;
22634;SDS011;11484;50.858;4.384;2023-01-24T07:55:20;49.63;;;26.20;;
22634;SDS011;11484;50.858;4.384;2023-01-24T07:57:47;50.70;;;27.02;;
22634;SDS011;11484;50.858;4.384;2023-01-24T08:00:13;50.03;;;28.17;;
22634;SDS011;11484;50.858;4.384;2023-01-24T08:02:40;49.47;;;27.73;;
22634;SDS011;11484;50.858;4.384;2023-01-24T08:05:06;46.50;;;27.45;;
22634;SDS011;11484;50.858;4.384;2023-01-24T08:07:32;48.15;;;26.85;;
22634;SDS011;11484;50.858;4.384;2023-01-24T08:09:58;50.22;;;28.02;;
22634;SDS011;11484;50.858;4.384;2023-01-24T08:12:23;49.45;;;27.08;;
22634;SDS011;11484;50.858;4.384;2023-01-24T08:14:49;52.42;;;29.05;;
22634;SDS011;11484;50.858;4.384;2023-01-24T08:17:15;49.08;;;27.67;;
22634;SDS011;11484;50.858;4.384;2023-01-24T08:19:41;46.60;;;26.70;;
22634;SDS011;11484;50.858;4.384;2023-01-24T08:22:07;47.65;;;27.83;;
22634;SDS011;11484;50.858;4.384;2023-01-24T08:24:33;49.38;;;27.50;;
22634;SDS011;11484;50.858;4.384;2023-01-24T08:26:59;45.95;;;27.20;;
22634;SDS011;11484;50.858;4.384;2023-01-24T08:29:25;48.22;;;27.92;;
22634;SDS011;11484;50.858;4.384;2023-01-24T08:31:51;49.38;;;27.67;;
22634;SDS011;11484;50.858;4.384;2023-01-24T08:34:17;48.60;;;27.35;;
22634;SDS011;11484;50.858;4.384;2023-01-24T08:36:43;48.03;;;26.67;;
22634;SDS011;11484;50.858;4.384;2023-01-24T08:39:09;47.92;;;26.98;;
22634;SDS011;11484;50.858;4.384;2023-01-24T08:41:34;50.00;;;27.33;;
22634;SDS011;11484;50.858;4.384;2023-01-24T08:44:01;50.85;;;27.90;;
22634;SDS011;11484;50.858;4.384;2023-01-24T08:46:27;52.97;;;28.13;;
22634;SDS011;11484;50.858;4.384;2023-01-24T08:48:54;51.78;;;27.92;;
22634;SDS011;11484;50.858;4.384;2023-01-24T08:51:20;50.13;;;28.08;;
22634;SDS011;11484;50.858;4.384;2023-01-24T08:53:45;48.47;;;28.20;;
22634;SDS011;11484;50.858;4.384;2023-01-24T08:56:11;49.25;;;29.05;;
22634;SDS011;11484;50.858;4.384;2023-01-24T08:58:37;53.22;;;29.00;;
22634;SDS011;11484;50.858;4.384;2023-01-24T09:01:07;50.22;;;29.52;;
22634;SDS011;11484;50.858;4.384;2023-01-24T09:03:33;50.55;;;28.40;;
22634;SDS011;11484;50.858;4.384;2023-01-24T09:05:59;53.40;;;27.70;;
22634;SDS011;11484;50.858;4.384;2023-01-24T09:08:25;50.25;;;29.75;;
22634;SDS011;11484;50.858;4.384;2023-01-24T09:10:51;58.05;;;31.80;;
22634;SDS011;11484;50.858;4.384;2023-01-24T09:13:17;49.28;;;28.80;;
22634;SDS011;11484;50.858;4.384;2023-01-24T09:15:43;55.22;;;29.73;;
22634;SDS011;11484;50.858;4.384;2023-01-24T09:18:08;52.22;;;28.45;;
22634;SDS011;11484;50.858;4.384;2023-01-24T09:20:34;52.28;;;29.42;;
22634;SDS011;11484;50.858;4.384;2023-01-24T09:23:07;49.88;;;28.88;;
22634;SDS011;11484;50.858;4.384;2023-01-24T09:25:39;47.83;;;26.77;;
22634;SDS011;11484;50.858;4.384;2023-01-24T09:28:06;48.50;;;28.42;;
22634;SDS011;11484;50.858;4.384;2023-01-24T09:30:32;49.88;;;28.27;;
22634;SDS011;11484;50.858;4.384;2023-01-24T09:32:58;46.15;;;27.88;;
22634;SDS011;11484;50.858;4.384;2023-01-24T09:35:27;44.28;;;25.80;;
22634;SDS011;11484;50.858;4.384;2023-01-24T09:37:53;48.38;;;28.45;;
22634;SDS011;11484;50.858;4.384;2023-01-24T09:42:45;42.17;;;24.42;;
22634;SDS011;11484;50.858;4.384;2023-01-24T09:45:27;39.80;;;24.48;;
22634;SDS011;11484;50.858;4.384;2023-01-24T09:47:58;40.85;;;24.58;;
22634;SDS011;11484;50.858;4.384;2023-01-24T09:50:33;41.33;;;24.80;;
22634;SDS011;11484;50.858;4.384;2023-01-24T09:53:00;41.20;;;24.25;;
22634;SDS011;11484;50.858;4.384;2023-01-24T10:00:38;32.10;;;20.58;;
22634;SDS011;11484;50.858;4.384;2023-01-24T10:03:16;35.15;;;21.05;;
22634;SDS011;11484;50.858;4.384;2023-01-24T10:05:49;35.47;;;21.83;;
22634;SDS011;11484;50.858;4.384;2023-01-24T10:14:25;37.35;;;21.77;;
22634;SDS011;11484;50.858;4.384;2023-01-24T10:33:27;39.38;;;22.33;;
22634;SDS011;11484;50.858;4.384;2023-01-24T10:35:58;41.05;;;25.30;;
22634;SDS011;11484;50.858;4.384;2023-01-24T10:38:29;37.78;;;24.23;;
22634;SDS011;11484;50.858;4.384;2023-01-24T10:41:12;41.08;;;24.58;;
22634;SDS011;11484;50.858;4.384;2023-01-24T10:43:41;41.28;;;24.77;;
22634;SDS011;11484;50.858;4.384;2023-01-24T10:49:07;42.42;;;25.15;;
22634;SDS011;11484;50.858;4.384;2023-01-24T10:51:37;37.78;;;23.95;;
22634;SDS011;11484;50.858;4.384;2023-01-24T10:54:02;35.97;;;21.65;;
22634;SDS011;11484;50.858;4.384;2023-01-24T10:56:28;38.08;;;23.63;;
22634;SDS011;11484;50.858;4.384;2023-01-24T10:58:58;36.05;;;22.48;;
22634;SDS011;11484;50.858;4.384;2023-01-24T11:01:37;35.50;;;21.88;;
22634;SDS011;11484;50.858;4.384;2023-01-24T11:04:22;38.35;;;23.27;;
22634;SDS011;11484;50.858;4.384;2023-01-24T11:06:51;37.38;;;22.98;;
22634;SDS011;11484;50.858;4.384;2023-01-24T11:09:18;36.60;;;21.67;;
22634;SDS011;11484;50.858;4.384;2023-01-24T11:11:55;36.33;;;22.77;;
22634;SDS011;11484;50.858;4.384;2023-01-24T11:14:23;36.13;;;22.73;;
22634;SDS011;11484;50.858;4.384;2023-01-24T11:16:56;36.05;;;21.35;;
22634;SDS011;11484;50.858;4.384;2023-01-24T11:19:30;36.10;;;22.52;;
22634;SDS011;11484;50.858;4.384;2023-01-24T11:22:40;30.25;;;18.83;;
22634;SDS011;11484;50.858;4.384;2023-01-24T11:25:00;29.92;;;19.50;;
22634;SDS011;11484;50.858;4.384;2023-01-24T11:27:27;28.77;;;18.52;;
22634;SDS011;11484;50.858;4.384;2023-01-24T11:30:07;33.38;;;19.60;;
22634;SDS011;11484;50.858;4.384;2023-01-24T11:35:24;32.40;;;20.05;;
22634;SDS011;11484;50.858;4.384;2023-01-24T11:41:02;32.13;;;21.17;;
22634;SDS011;11484;50.858;4.384;2023-01-24T11:52:20;36.30;;;22.75;;
22634;SDS011;11484;50.858;4.384;2023-01-24T11:55:12;40.80;;;23.88;;
22634;SDS011;11484;50.858;4.384;2023-01-24T12:06:09;40.67;;;24.27;;
22634;SDS011;11484;50.858;4.384;2023-01-24T12:22:29;46.08;;;26.60;;
22634;SDS011;11484;50.858;4.384;2023-01-24T12:27:29;42.95;;;26.58;;
22634;SDS011;11484;50.858;4.384;2023-01-24T12:30:01;44.83;;;26.40;;
22634;SDS011;11484;50.858;4.384;2023-01-24T12:35:35;47.80;;;27.30;;
22634;SDS011;11484;50.858;4.384;2023-01-24T12:41:03;46.45;;;26.75;;
22634;SDS011;11484;50.858;4.384;2023-01-24T12:43:57;45.75;;;26.73;;
22634;SDS011;11484;50.858;4.384;2023-01-24T12:46:44;41.95;;;25.58;;
22634;SDS011;11484;50.858;4.384;2023-01-24T12:52:00;48.20;;;27.33;;
22634;SDS011;11484;50.858;4.384;2023-01-24T12:54:48;43.30;;;25.40;;
22634;SDS011;11484;50.858;4.384;2023-01-24T13:00:18;45.55;;;26.92;;
22634;SDS011;11484;50.858;4.384;2023-01-24T13:05:42;41.10;;;25.92;;
22634;SDS011;11484;50.858;4.384;2023-01-24T13:08:19;41.08;;;26.80;;
22634;SDS011;11484;50.858;4.384;2023-01-24T13:13:36;45.03;;;27.67;;
22634;SDS011;11484;50.858;4.384;2023-01-24T13:19:07;41.05;;;24.05;;
22634;SDS011;11484;50.858;4.384;2023-01-24T13:21:55;40.17;;;24.65;;
22634;SDS011;11484;50.858;4.384;2023-01-24T13:24:31;38.40;;;23.17;;
22634;SDS011;11484;50.858;4.384;2023-01-24T13:30:12;39.67;;;25.17;;
22634;SDS011;11484;50.858;4.384;2023-01-24T13:32:49;44.90;;;26.60;;
22634;SDS011;11484;50.858;4.384;2023-01-24T13:35:22;41.47;;;26.27;;
22634;SDS011;11484;50.858;4.384;2023-01-24T13:37:50;41.78;;;26.13;;
22634;SDS011;11484;50.858;4.384;2023-01-24T13:40:25;46.38;;;26.88;;
22634;SDS011;11484;50.858;4.384;2023-01-24T13:43:00;39.72;;;25.50;;
22634;SDS011;11484;50.858;4.384;2023-01-24T13:45:48;45.28;;;26.83;;
22634;SDS011;11484;50.858;4.384;2023-01-24T13:54:00;43.60;;;26.88;;
22634;SDS011;11484;50.858;4.384;2023-01-24T14:00:32;44.03;;;26.42;;
22634;SDS011;11484;50.858;4.384;2023-01-24T14:07:53;46.35;;;28.67;;
22634;SDS011;11484;50.858;4.384;2023-01-24T14:10:33;43.65;;;26.50;;
22634;SDS011;11484;50.858;4.384;2023-01-24T14:15:37;42.10;;;26.02;;
22634;SDS011;11484;50.858;4.384;2023-01-24T14:21:14;40.53;;;25.25;;
22634;SDS011;11484;50.858;4.384;2023-01-24T14:23:47;39.47;;;24.63;;
22634;SDS011;11484;50.858;4.384;2023-01-24T14:26:17;40.67;;;24.35;;
22634;SDS011;11484;50.858;4.384;2023-01-24T14:28:47;41.05;;;26.38;;
22634;SDS011;11484;50.858;4.384;2023-01-24T14:31:28;36.75;;;23.23;;
22634;SDS011;11484;50.858;4.384;2023-01-24T14:34:09;41.13;;;24.98;;
22634;SDS011;11484;50.858;4.384;2023-01-24T14:36:47;42.40;;;26.20;;
22634;SDS011;11484;50.858;4.384;2023-01-24T14:41:59;41.70;;;25.83;;
22634;SDS011;11484;50.858;4.384;2023-01-24T14:44:28;41.75;;;25.65;;
22634;SDS011;11484;50.858;4.384;2023-01-24T14:49:51;43.22;;;26.65;;
22634;SDS011;11484;50.858;4.384;2023-01-24T14:54:47;39.42;;;24.33;;
22634;SDS011;11484;50.858;4.384;2023-01-24T14:57:21;36.22;;;24.02;;
22634;SDS011;11484;50.858;4.384;2023-01-24T15:00:25;36.67;;;23.05;;
22634;SDS011;11484;50.858;4.384;2023-01-24T15:02:55;38.00;;;23.00;;
22634;SDS011;11484;50.858;4.384;2023-01-24T15:05:31;36.92;;;23.25;;
22634;SDS011;11484;50.858;4.384;2023-01-24T15:08:02;34.65;;;22.42;;
22634;SDS011;11484;50.858;4.384;2023-01-24T15:10:38;35.15;;;23.10;;
22634;SDS011;11484;50.858;4.384;2023-01-24T15:13:17;38.77;;;23.73;;
22634;SDS011;11484;50.858;4.384;2023-01-24T15:16:00;41.97;;;25.65;;
22634;SDS011;11484;50.858;4.384;2023-01-24T15:21:28;38.85;;;24.38;;
22634;SDS011;11484;50.858;4.384;2023-01-24T15:26:33;37.25;;;22.90;;
22634;SDS011;11484;50.858;4.384;2023-01-24T15:31:49;41.30;;;23.20;;
22634;SDS011;11484;50.858;4.384;2023-01-24T15:34:19;40.67;;;24.23;;
22634;SDS011;11484;50.858;4.384;2023-01-24T15:36:45;37.60;;;24.08;;
22634;SDS011;11484;50.858;4.384;2023-01-24T15:39:23;43.10;;;25.25;;
22634;SDS011;11484;50.858;4.384;2023-01-24T15:41:48;41.72;;;24.90;;
22634;SDS011;11484;50.858;4.384;2023-01-24T15:44:33;39.55;;;24.30;;
22634;SDS011;11484;50.858;4.384;2023-01-24T15:47:21;37.78;;;23.45;;
22634;SDS011;11484;50.858;4.384;2023-01-24T15:50:15;35.80;;;24.20;;
22634;SDS011;11484;50.858;4.384;2023-01-24T15:55:49;34.00;;;21.95;;
22634;SDS011;11484;50.858;4.384;2023-01-24T15:58:16;36.30;;;22.30;;
22634;SDS011;11484;50.858;4.384;2023-01-24T16:00:52;33.22;;;21.75;;
22634;SDS011;11484;50.858;4.384;2023-01-24T16:03:21;38.38;;;23.63;;
22634;SDS011;11484;50.858;4.384;2023-01-24T16:05:47;33.15;;;22.85;;
22634;SDS011;11484;50.858;4.384;2023-01-24T16:08:13;37.97;;;22.92;;
22634;SDS011;11484;50.858;4.384;2023-01-24T16:10:39;35.83;;;22.40;;
22634;SDS011;11484;50.858;4.384;2023-01-24T16:13:05;39.92;;;24.08;;
22634;SDS011;11484;50.858;4.384;2023-01-24T16:15:37;34.33;;;22.58;;
22634;SDS011;11484;50.858;4.384;2023-01-24T16:18:03;39.15;;;24.05;;
22634;SDS011;11484;50.858;4.384;2023-01-24T16:20:29;36.17;;;23.40;;
22634;SDS011;11484;50.858;4.384;2023-01-24T16:22:56;37.60;;;23.50;;
22634;SDS011;11484;50.858;4.384;2023-01-24T16:25:21;38.80;;;24.48;;
22634;SDS011;11484;50.858;4.384;2023-01-24T16:27:48;39.20;;;23.63;;
22634;SDS011;11484;50.858;4.384;2023-01-24T16:30:20;36.03;;;22.85;;
22634;SDS011;11484;50.858;4.384;2023-01-24T16:32:47;38.05;;;24.20;;
22634;SDS011;11484;50.858;4.384;2023-01-24T16:35:13;41.30;;;24.23;;
22634;SDS011;11484;50.858;4.384;2023-01-24T16:37:39;37.92;;;24.25;;
22634;SDS011;11484;50.858;4.384;2023-01-24T16:40:05;33.58;;;22.02;;
22634;SDS011;11484;50.858;4.384;2023-01-24T16:42:40;38.50;;;22.95;;
22634;SDS011;11484;50.858;4.384;2023-01-24T16:45:11;41.58;;;24.77;;
22634;SDS011;11484;50.858;4.384;2023-01-24T16:47:38;31.10;;;20.83;;
22634;SDS011;11484;50.858;4.384;2023-01-24T16:50:04;32.05;;;21.17;;
22634;SDS011;11484;50.858;4.384;2023-01-24T16:52:30;34.80;;;22.70;;
22634;SDS011;11484;50.858;4.384;2023-01-24T16:54:56;36.35;;;22.83;;
22634;SDS011;11484;50.858;4.384;2023-01-24T16:57:22;34.00;;;21.83;;
22634;SDS011;11484;50.858;4.384;2023-01-24T16:59:50;33.83;;;20.83;;
22634;SDS011;11484;50.858;4.384;2023-01-24T17:02:16;31.33;;;21.00;;
22634;SDS011;11484;50.858;4.384;2023-01-24T17:04:41;33.60;;;21.15;;
22634;SDS011;11484;50.858;4.384;2023-01-24T17:07:07;33.70;;;20.52;;
22634;SDS011;11484;50.858;4.384;2023-01-24T17:09:33;33.42;;;21.15;;